<<    September 2013    >>
Datum    Temp.       Tempmin      Tempmax    Taup.       Taup.min      Taup.max    Feuchte    Feuchtemin    Feuchtemax    Druck    Druckmin    Druckmax    Regen    Wind    Benmax  
  01.09.2013  15,5    10,8    07:07    20,2    15:17  6,7    4,3    18:07    9,4    08:45  58,0    37    15:24    83    07:29  1026,5    1025    00:00    1028    10:31  0,0  2,7  15,5  
  02.09.2013  17,9    14,1    05:45    22,6    14:33  9,9    7,1    00:00    13,0    23:46  60,5    43    14:41    75    08:47  1024,4    1023    04:30    1027    00:00  0,0  3,5  22,3  
  03.09.2013  19,1    14,4    07:32    25,2    16:23  13,1    11,8    02:06    15,2    11:58  69,7    45    16:36    90    08:06  1025,8    1023    19:16    1027    09:00  0,0  1,2  11,5  
  04.09.2013  20,7    13,8    07:03    29,2    17:05  13,0    10,2    18:10    16,0    11:07  66,2    32    17:02    95    07:48  1021,3    1017    18:00    1026    00:00  0,0  1,2  11,5  
  05.09.2013  24,1    17,4    03:56    32,7    16:22  13,4    11,0    18:24    15,7    11:24  55,3    28    16:37    81    07:31  1013,2    1009    16:44    1018    00:29  0,0  1,9  15,8  
  06.09.2013  24,6    20,0    07:00    33,6    15:05  12,4    6,8    15:34    14,6    23:59  49,1    20    15:16    71    23:57  1007,8    1005    13:30    1011    23:30  0,0  2,4  13,0  
  07.09.2013  19,3    15,3    20:43    23,5    13:23  15,0    12,0    16:03    17,6    10:03  77,3    52    15:46    98    23:59  1015,2    1011    00:00    1019    19:44  3,0  1,6  10,4  
  08.09.2013  14,9    13,2    06:54    17,0    18:33  14,2    12,9    06:54    16,2    16:27  95,6    81    18:44    98    00:00  1017,3    1014    05:44    1019    14:14  0,0  2,3  17,6  
  09.09.2013  15,1    11,7    05:47    19,7    14:12  11,0    5,8    15:03    14,1    00:00  79,7    43    15:03    98    00:00  1016,3    1010    23:26    1019    00:00  0,0  1,7  13,0  
  10.09.2013  13,6    11,1    05:32    15,9    13:02  10,4    9,0    19:17    13,3    01:51  82,0    67    13:16    97    01:51  1012,5    1009    01:40    1014    13:55  0,0  4,3  17,6  
  11.09.2013  13,7    11,9    00:00    19,2    14:19  12,4    10,4    15:41    14,4    13:22  92,5    60    15:41    98    00:34  1011,6    1009    01:41    1014    23:59  0,0  3,0  19,8  
  12.09.2013  14,7    13,0    02:42    19,4    14:41  13,4    12,0    14:53    14,6    10:21  92,2    64    14:53    98    00:00  1015,5    1013    06:54    1018    20:39  0,0  2,1  12,6  
  13.09.2013  16,3    13,0    01:32    20,5    15:55  12,8    10,4    17:19    14,8    09:28  81,9    54    16:11    98    00:00  1018,4    1016    23:54    1020    09:39  0,0  0,9  9,0  
  14.09.2013  16,3    14,9    23:59    19,0    12:38  14,8    12,4    00:05    18,7    12:38  91,1    76    17:27    98    05:52  1012,1    1009    12:24    1016    00:00  0,0  2,4  15,5  
  15.09.2013  14,6    11,3    07:39    17,9    15:41  10,0    6,6    15:20    12,8    10:30  75,7    49    15:20    97    08:30  1010,8    1006    23:23    1014    01:09  1,8  1,6  10,4  
  16.09.2013  13,5    10,4    21:19    17,2    16:36  8,5    1,1    18:30    14,1    10:21  75,6    36    16:43    98    02:46  1001,9    999    16:39    1006    00:00  8,7  2,7  20,5  
  17.09.2013  11,2    7,8    06:55    16,0    15:18  6,0    3,1    13:20    10,4    23:59  72,7    44    13:20    96    23:20  1003,4    996    23:24    1006    11:09  0,0  2,4  15,8  
  18.09.2013  12,6    10,6    23:58    14,5    15:47  11,3    9,6    22:13    13,0    11:44  92,5    75    17:37    98    00:25  999,2    993    02:08    1008    23:59  5,7  1,9  13,7  
  19.09.2013  13,2    10,1    00:55    17,1    13:05  8,7    5,1    13:25    11,3    10:15  76,3    49    13:07    97    01:03  1011,2    1008    00:00    1014    14:22  0,9  2,4  15,8  
  20.09.2013  14,8    12,6    02:09    16,9    15:03  11,0    8,7    00:00    13,9    10:12  79,1    62    15:16    96    06:52  1015,0    1010    04:08    1022    22:38  0,0  2,5  15,5  
  21.09.2013  14,2    10,1    07:40    18,9    15:39  10,0    7,8    15:12    13,2    10:01  78,0    50    15:43    98    08:56  1025,0    1021    00:07    1028    23:07  0,0  0,6  10,8  
  22.09.2013  15,2    10,9    00:50    19,4    14:07  12,4    9,1    00:52    14,6    21:09  84,3    67    15:08    94    04:07  1026,9    1026    16:07    1028    00:00  0,0  0,6  7,6  
  23.09.2013  16,9    15,1    00:00    20,3    15:36  13,7    10,9    15:05    15,7    09:28  82,7    56    15:48    98    02:36  1024,5    1020    23:59    1027    00:21  0,0  0,9  9,4  
  24.09.2013  16,5    13,1    23:59    21,4    15:49  11,4    8,9    17:31    13,4    11:09  74,2    46    16:20    91    02:37  1016,4    1011    17:21    1020    00:00  0,0  1,0  10,1  
  25.09.2013  15,5    10,8    04:00    21,2    14:59  12,2    9,5    04:00    14,2    11:36  82,1    59    15:21    95    04:58  1010,7    1007    17:21    1015    01:51  0,0  1,0  11,5  
  26.09.2013  15,1    10,9    23:43    19,4    15:32  10,9    5,9    15:09    14,3    06:06  78,8    42    15:51    97    04:31  1013,6    1010    00:00    1018    23:59  0,0  1,9  14,0  
  27.09.2013  12,9    7,3    07:19    19,1    15:55  7,3    5,2    16:49    9,3    09:28  71,6    41    16:00    96    08:49  1016,6    1013    17:20    1019    06:36  0,0  1,2  11,9  
  28.09.2013  13,2    8,2    07:29    19,2    14:23  5,2    3,5    06:32    8,2    13:31  59,8    44    18:09    75    08:23  1013,6    1011    16:51    1017    00:20  0,0  1,6  13,0  
  29.09.2013  14,8    10,9    07:39    20,6    16:07  3,3    1,6    23:29    4,6    09:55  47,3    32    15:41    61    08:09  1010,0    1007    17:20    1013    01:35  0,0  2,9  15,1  
  30.09.2013  12,9    6,5    07:27    18,4    15:35  3,5    1,4    00:42    4,9    08:49  54,1    39    15:13    77    08:02  1010,7    1008    17:05    1012    00:00  0,0  1,9  15,5  
 
  Gesamt  15,8  6,5            33,6            10,6  1,1            18,7            74,5  20            98            1014,9  993            1028            20,1  1,9  22,3  
 
  Mittelwert  15,8  12,0            20,5            10,6  7,8            13,2            74,5  49,7            91,4            1014,9  1011,3            1018,1            0,7  1,9  13,9  
  Minimum  11,2  6,5            14,5            3,3  1,1            4,6            47,3  20,0            61,0            999,2  993,0            1006,0            0,0  0,6  7,6  
  Maximum  24,6  20,0            33,6            15,0  12,9            18,7            95,6  81,0            98,0            1026,9  1026,0            1028,0            8,7  4,3  22,3  

  Heie Tage    Tmax >=30C     2  
  Sommertage    Tmax >=25C     4  
  Warme Tage    Tmax >=20C     12  
  Kalte Tage    Tmax  <10C     0  
  Frosttage    Tmin  <0C     0  
  Eistage    Tmax  <0C     0  
  Regentage > 0 mm    5  
  Regentage > 2 mm    3  
  Regentage > 10 mm    0  
  Regentage > 20 mm    0